Breakwater — WYH7020 — position and weather

sailwx.info

Track history (hours):
 
Tides and Currents Weather Stations Pressure Air Temp Water Temp Dewpoint Dewpoint Depression Visibility Wind Speed Wind Dir Waves Ship Positions

Breakwater

Owner: DELAWARE BAY LAUNCH SERVICE, Inc., MILFORD, DE. More information available from US FCC via Universal Licensing System and Coast Guard Vessel Documentation Center.

Last reported at 2018-Apr-23 05:30 UTC. Time now 2018-Apr-23 05:30 UTC.
Position N 39°23' W 075°21'.

Length 15 m; draft 1 m.

Type: Pilot. MMSI: 367090620.

Date/timePositionNaut miles runAvg speedWind from/ knotsBaromVisibWave heightAir tempDewpointWater temp
2018-Apr-23 05:30N 39°23' W 075°21'0 0.0
2018-Apr-23 05:00N 39°23' W 075°21'0 0.0
2018-Apr-23 04:30N 39°23' W 075°21'0 0.0
2018-Apr-23 04:00N 39°23' W 075°21'0 0.0
2018-Apr-23 02:56N 39°23' W 075°21'0 0.0
2018-Apr-23 02:28N 39°23' W 075°21'0 0.0
2018-Apr-23 00:20N 39°23' W 075°21'0 0.0
2018-Apr-22 23:57N 39°23' W 075°21'510.9
2018-Apr-22 23:30N 39°18' W 075°22'4 7.7
2018-Apr-22 22:59N 39°22' W 075°21'4 8.5
2018-Apr-22 22:30N 39°18' W 075°22'5 9.6
2018-Apr-22 21:59N 39°23' W 075°21'0 0.0
2018-Apr-22 21:30N 39°23' W 075°21'0 0.3
2018-Apr-22 21:00N 39°23' W 075°21'0 0.2
2018-Apr-22 20:29N 39°23' W 075°21'0 0.0
2018-Apr-22 20:00N 39°23' W 075°21'0 0.0
2018-Apr-22 19:27N 39°23' W 075°21'0 0.0
2018-Apr-22 18:59N 39°23' W 075°21'0 0.0
2018-Apr-22 18:29N 39°23' W 075°21'510.2
2018-Apr-22 17:58N 39°18' W 075°22'510.5
2018-Apr-22 17:28N 39°23' W 075°21'0 0.0
2018-Apr-22 16:59N 39°23' W 075°21'0 0.0
2018-Apr-22 16:30N 39°23' W 075°21'0 0.0
2018-Apr-22 16:00N 39°23' W 075°21'0 0.0
2018-Apr-22 15:29N 39°23' W 075°21'2 3.5
2018-Apr-22 15:01N 39°21' W 075°22'4 6.7
2018-Apr-22 14:29N 39°18' W 075°22'4 7.8
2018-Apr-22 14:00N 39°20' W 075°26'1325.2
2018-Apr-22 13:28N 39°33' W 075°32'3 6.6
2018-Apr-22 13:00N 39°34' W 075°29'0 0.5
2018-Apr-22 12:30N 39°34' W 075°30'815.6
2018-Apr-22 12:01N 39°27' W 075°33'1223.1
2018-Apr-22 11:30N 39°18' W 075°23'4 7.7
2018-Apr-22 10:58N 39°22' W 075°21'4 7.7
2018-Apr-22 10:29N 39°19' W 075°22'4 9.1
2018-Apr-22 10:00N 39°23' W 075°21'0 0.0
2018-Apr-22 09:28N 39°23' W 075°21'0 0.0
2018-Apr-22 09:00N 39°23' W 075°21'0 0.0
2018-Apr-22 08:30N 39°23' W 075°21'0 0.0
2018-Apr-22 07:59N 39°23' W 075°21'0 0.0
2018-Apr-22 07:30N 39°23' W 075°21'0 0.0
2018-Apr-22 06:59N 39°23' W 075°21'0 0.0
2018-Apr-22 06:29N 39°23' W 075°21'0 0.0
2018-Apr-22 06:00N 39°23' W 075°21'3 5.2
2018-Apr-22 05:30N 39°20' W 075°22'0 0.9
2018-Apr-22 05:00N 39°20' W 075°22'3 5.9
2018-Apr-22 04:30N 39°23' W 075°21'0 0.0
2018-Apr-22 04:00N 39°23' W 075°21'0 0.0
2018-Apr-22 03:31N 39°23' W 075°21'0 0.0
2018-Apr-22 03:01N 39°23' W 075°21'0 0.0
2018-Apr-22 02:31N 39°23' W 075°21'0 0.0
2018-Apr-22 02:00N 39°23' W 075°21'0 0.0
2018-Apr-22 01:28N 39°23' W 075°21'0 0.0
2018-Apr-22 01:00N 39°23' W 075°21'0 0.0
2018-Apr-22 00:31N 39°23' W 075°21'0 0.0
2018-Apr-22 00:00N 39°23' W 075°21'2 4.6
2018-Apr-21 23:31N 39°21' W 075°22'1 2.7
2018-Apr-21 23:00N 39°22' W 075°21'4 8.4
2018-Apr-21 22:30N 39°18' W 075°22'510.5
2018-Apr-21 22:00N 39°23' W 075°21'0 0.0
2018-Apr-21 21:30N 39°23' W 075°21'1 1.3
2018-Apr-21 21:00N 39°22' W 075°21'0 0.2
2018-Apr-21 18:49N 39°22' W 075°21'0 0.6
2018-Apr-21 18:03N 39°23' W 075°21'0 0.1
2018-Apr-21 17:59N 39°23' W 075°21'0 0.0
2018-Apr-21 17:26N 39°23' W 075°21'0 0.0
2018-Apr-21 16:59N 39°23' W 075°21'0 0.0
2018-Apr-21 16:28N 39°23' W 075°21'0 0.0
2018-Apr-21 15:57N 39°23' W 075°21'0 0.0
2018-Apr-21 15:29N 39°23' W 075°21'0 0.0
2018-Apr-21 14:57N 39°23' W 075°21'2 3.4
2018-Apr-21 14:29N 39°21' W 075°22'2 3.1
2018-Apr-21 13:59N 39°23' W 075°21'0 0.0
2018-Apr-21 13:30N 39°23' W 075°21'0 0.0
2018-Apr-21 12:59N 39°23' W 075°21'0 0.0
2018-Apr-21 12:28N 39°23' W 075°21'0 0.0
2018-Apr-21 11:58N 39°23' W 075°21'510.7
2018-Apr-21 11:29N 39°18' W 075°22'510.6
2018-Apr-21 11:00N 39°23' W 075°21'510.1
2018-Apr-21 10:30N 39°18' W 075°22'510.0
2018-Apr-21 09:58N 39°23' W 075°21'0 0.0
2018-Apr-21 09:28N 39°23' W 075°21'0 0.0
2018-Apr-21 09:00N 39°23' W 075°21'0 0.0
2018-Apr-21 08:30N 39°23' W 075°21'0 0.0
2018-Apr-21 08:00N 39°23' W 075°21'0 0.0
2018-Apr-21 07:30N 39°23' W 075°21'0 0.0
2018-Apr-21 07:00N 39°23' W 075°21'0 0.0
2018-Apr-21 06:30N 39°23' W 075°21'0 0.0
2018-Apr-21 06:00N 39°23' W 075°21'0 0.0
2018-Apr-21 05:30N 39°23' W 075°21'0 0.0
2018-Apr-21 05:00N 39°23' W 075°21'0 0.0
2018-Apr-21 04:28N 39°23' W 075°21'0 0.0
2018-Apr-21 04:00N 39°23' W 075°21'0 0.0
2018-Apr-21 03:30N 39°23' W 075°21'0 0.0
2018-Apr-21 03:00N 39°23' W 075°21'0 0.0
2018-Apr-21 02:30N 39°23' W 075°21'0 0.0
2018-Apr-21 02:00N 39°23' W 075°21'0 0.0
2018-Apr-21 01:30N 39°23' W 075°21'0 0.0
2018-Apr-21 01:00N 39°23' W 075°21'0 0.0
2018-Apr-21 00:30N 39°23' W 075°21'2 3.3
2018-Apr-21 00:01N 39°21' W 075°22'3 6.8
2018-Apr-20 23:30N 39°18' W 075°22'510.2
2018-Apr-20 23:00N 39°23' W 075°21'0 0.1
2018-Apr-20 20:41N 39°23' W 075°21'518.4
2018-Apr-20 20:25N 39°18' W 075°23'511.5
2018-Apr-20 20:00N 39°22' W 075°21'1 1.2
2018-Apr-20 19:30N 39°23' W 075°21'0 0.0
2018-Apr-20 19:00N 39°23' W 075°21'0 0.0
2018-Apr-20 18:30N 39°23' W 075°21'2 4.9
2018-Apr-20 18:00N 39°20' W 075°22'1 2.9
2018-Apr-20 17:30N 39°22' W 075°21'1 2.1
2018-Apr-20 17:00N 39°23' W 075°21'0 0.0
2018-Apr-20 16:30N 39°23' W 075°21'0 0.0
2018-Apr-20 16:00N 39°23' W 075°21'0 0.0
2018-Apr-20 15:30N 39°23' W 075°21'0 0.0
2018-Apr-20 15:00N 39°23' W 075°21'0 0.0
2018-Apr-20 14:30N 39°23' W 075°21'0 0.0
2018-Apr-20 14:00N 39°23' W 075°21'0 0.0
2018-Apr-20 13:30N 39°23' W 075°21'0 0.0
2018-Apr-20 13:00N 39°23' W 075°21'0 0.0
2018-Apr-20 12:30N 39°23' W 075°21'0 0.0
2018-Apr-20 11:59N 39°23' W 075°21'0 0.0
2018-Apr-20 11:29N 39°23' W 075°21'0 0.0
2018-Apr-20 10:55N 39°23' W 075°21'512.1
2018-Apr-20 10:30N 39°18' W 075°22'5 9.9
2018-Apr-20 10:00N 39°23' W 075°21'0 0.0
2018-Apr-20 09:29N 39°23' W 075°21'0 0.0
2018-Apr-20 08:59N 39°23' W 075°21'0 0.0
2018-Apr-20 08:30N 39°23' W 075°21'0 0.0
2018-Apr-20 08:00N 39°23' W 075°21'0 0.0
2018-Apr-20 07:30N 39°23' W 075°21'0 0.0
2018-Apr-20 07:00N 39°23' W 075°21'0 0.0
2018-Apr-20 06:29N 39°23' W 075°21'0 0.0
2018-Apr-20 06:00N 39°23' W 075°21'0 0.0
2018-Apr-20 05:30N 39°23' W 075°21'0 0.0
2018-Apr-20 05:00N 39°23' W 075°21'0 0.0
2018-Apr-20 04:30N 39°23' W 075°21'0 0.0
2018-Apr-20 04:00N 39°23' W 075°21'0 0.0
2018-Apr-20 03:30N 39°23' W 075°21'0 0.0
2018-Apr-20 03:00N 39°23' W 075°21'0 0.0
2018-Apr-20 02:30N 39°23' W 075°21'0 0.0
2018-Apr-20 02:00N 39°23' W 075°21'0 0.0
2018-Apr-20 01:30N 39°23' W 075°21'0 0.0
2018-Apr-20 01:00N 39°23' W 075°21'0 0.0
2018-Apr-20 00:30N 39°23' W 075°21'0 0.0
2018-Apr-20 00:00N 39°23' W 075°21'0 0.0
2018-Apr-19 23:19N 39°23' W 075°21'0 0.3
2018-Apr-19 23:01N 39°23' W 075°21'5 9.5
2018-Apr-19 22:28N 39°18' W 075°22'511.3
2018-Apr-19 22:00N 39°23' W 075°21'0 0.0
2018-Apr-19 21:30N 39°23' W 075°21'0 0.0
2018-Apr-19 21:00N 39°23' W 075°21'0 0.0
2018-Apr-19 20:30N 39°23' W 075°21'0 0.0
2018-Apr-19 20:00N 39°23' W 075°21'0 0.0
2018-Apr-19 19:30N 39°23' W 075°21'0 0.0
2018-Apr-19 19:00N 39°23' W 075°21'0 0.0
2018-Apr-19 18:30N 39°23' W 075°21'0 0.0
2018-Apr-19 18:00N 39°23' W 075°21'0 0.0
2018-Apr-19 17:30N 39°23' W 075°21'0 0.0
2018-Apr-19 17:00N 39°23' W 075°21'0 0.0
2018-Apr-19 16:30N 39°23' W 075°21'0 0.0
2018-Apr-19 16:00N 39°23' W 075°21'1 2.8
2018-Apr-19 15:30N 39°21' W 075°22'4 7.7
2018-Apr-19 15:00N 39°18' W 075°22'0 0.0
2018-Apr-19 14:28N 39°18' W 075°22'510.8
2018-Apr-19 13:59N 39°23' W 075°21'0 0.0
2018-Apr-19 13:30N 39°23' W 075°21'0 0.0
2018-Apr-19 13:00N 39°23' W 075°21'0 0.0
2018-Apr-19 12:31N 39°23' W 075°21'3 5.8
2018-Apr-19 12:00N 39°20' W 075°22'3 5.8
2018-Apr-19 11:30N 39°23' W 075°21'0 0.0
2018-Apr-19 10:59N 39°23' W 075°21'510.7
2018-Apr-19 10:30N 39°18' W 075°22'510.3
2018-Apr-19 10:00N 39°23' W 075°21'0 0.0
2018-Apr-19 09:30N 39°23' W 075°21'0 0.0
2018-Apr-19 09:00N 39°23' W 075°21'0 0.0
2018-Apr-19 08:30N 39°23' W 075°21'0 0.0
2018-Apr-19 08:00N 39°23' W 075°21'0 0.0
2018-Apr-19 07:30N 39°23' W 075°21'0 0.0
2018-Apr-19 07:00N 39°23' W 075°21'0 0.0
2018-Apr-19 06:30N 39°23' W 075°21'0 0.0
2018-Apr-19 06:00N 39°23' W 075°21'0 0.0
2018-Apr-19 05:28N 39°23' W 075°21'0 0.0
2018-Apr-19 05:00N 39°23' W 075°21'0 0.0
2018-Apr-19 04:30N 39°23' W 075°21'0 0.0
2018-Apr-19 04:00N 39°23' W 075°21'0 0.0
2018-Apr-19 03:30N 39°23' W 075°21'0 0.0
2018-Apr-19 03:00N 39°23' W 075°21'0 0.0
2018-Apr-19 02:30N 39°23' W 075°21'0 0.0
2018-Apr-19 02:00N 39°23' W 075°21'0 0.0
2018-Apr-19 01:30N 39°23' W 075°21'0 0.0
2018-Apr-19 01:00N 39°23' W 075°21'0 0.0
2018-Apr-19 00:30N 39°23' W 075°21'0 0.0
2018-Apr-19 00:00N 39°23' W 075°21'3 6.5
2018-Apr-18 23:31N 39°20' W 075°22'3 6.5
2018-Apr-18 23:00N 39°23' W 075°21'510.1
2018-Apr-18 22:30N 39°18' W 075°22'510.4
2018-Apr-18 22:00N 39°23' W 075°21'0 0.0
2018-Apr-18 21:30N 39°23' W 075°21'0 0.0
2018-Apr-18 21:00N 39°23' W 075°21'0 0.0
2018-Apr-18 20:30N 39°23' W 075°21'0 0.0
2018-Apr-18 20:00N 39°23' W 075°21'0 0.0
2018-Apr-18 19:30N 39°23' W 075°21'0 0.0
2018-Apr-18 19:00N 39°23' W 075°21'0 0.1
2018-Apr-18 18:30N 39°23' W 075°21'510.0
2018-Apr-18 17:59N 39°18' W 075°22'510.7
2018-Apr-18 17:30N 39°23' W 075°21'0 0.0
2018-Apr-18 17:00N 39°23' W 075°21'0 0.0
2018-Apr-18 16:30N 39°23' W 075°21'0 0.0
2018-Apr-18 16:00N 39°23' W 075°21'2 3.7
2018-Apr-18 15:31N 39°21' W 075°22'3 6.6
2018-Apr-18 15:00N 39°18' W 075°22'0 0.1
2018-Apr-18 14:31N 39°18' W 075°22'510.2
2018-Apr-18 14:00N 39°23' W 075°21'0 0.0
2018-Apr-18 13:30N 39°23' W 075°21'0 0.0
2018-Apr-18 13:00N 39°23' W 075°21'0 0.0
2018-Apr-18 12:29N 39°23' W 075°21'0 0.0
2018-Apr-18 12:00N 39°23' W 075°21'0 0.0
2018-Apr-18 11:30N 39°23' W 075°21'0 0.0
2018-Apr-18 11:00N 39°23' W 075°21'510.3
2018-Apr-18 10:30N 39°18' W 075°22'510.3
2018-Apr-18 10:00N 39°23' W 075°21'0 0.0
2018-Apr-18 09:30N 39°23' W 075°21'0 0.0
2018-Apr-18 09:00N 39°23' W 075°21'0 0.0
2018-Apr-18 08:30N 39°23' W 075°21'0 0.0
2018-Apr-18 08:00N 39°23' W 075°21'0 0.0
2018-Apr-18 07:29N 39°23' W 075°21'0 0.0
2018-Apr-18 07:00N 39°23' W 075°21'0 0.0
2018-Apr-18 06:30N 39°23' W 075°21'0 0.0
2018-Apr-18 05:59N 39°23' W 075°21'0 0.0
2018-Apr-18 05:30N 39°23' W 075°21'0 0.0
2018-Apr-18 05:00N 39°23' W 075°21'0 0.0
2018-Apr-18 04:30N 39°23' W 075°21'0 0.0
2018-Apr-18 04:00N 39°23' W 075°21'0 0.0
2018-Apr-18 03:30N 39°23' W 075°21'0 0.0
2018-Apr-18 03:00N 39°23' W 075°21'0 0.0
2018-Apr-18 02:30N 39°23' W 075°21'0 0.0
2018-Apr-18 02:00N 39°23' W 075°21'0 0.0
2018-Apr-18 01:30N 39°23' W 075°21'0 0.0
2018-Apr-18 01:00N 39°23' W 075°21'0 0.0
2018-Apr-18 00:30N 39°23' W 075°21'2 4.6
2018-Apr-18 00:00N 39°21' W 075°22'3 5.5
2018-Apr-17 23:29N 39°18' W 075°22'510.9
2018-Apr-17 23:01N 39°23' W 075°21'510.3
2018-Apr-17 22:31N 39°18' W 075°22'510.3
2018-Apr-17 22:01N 39°23' W 075°21'0 0.0
2018-Apr-17 21:31N 39°23' W 075°21'0 0.0
2018-Apr-17 21:01N 39°23' W 075°21'0 0.0
2018-Apr-17 20:31N 39°23' W 075°21'0 0.0
2018-Apr-17 20:01N 39°23' W 075°21'0 0.0
2018-Apr-17 19:30N 39°23' W 075°21'0 0.0
2018-Apr-17 19:00N 39°23' W 075°21'0 0.0
2018-Apr-17 18:30N 39°23' W 075°21'0 0.0
2018-Apr-17 18:01N 39°23' W 075°21'0 0.0
2018-Apr-17 17:30N 39°23' W 075°21'0 0.0
2018-Apr-17 17:00N 39°23' W 075°21'0 0.0
2018-Apr-17 16:30N 39°23' W 075°21'0 0.0
2018-Apr-17 16:00N 39°23' W 075°21'3 6.9
2018-Apr-17 15:31N 39°19' W 075°22'3 6.8
2018-Apr-17 15:00N 39°23' W 075°21'1 2.0
2018-Apr-17 14:31N 39°22' W 075°21'0 1.0
2018-Apr-17 14:01N 39°22' W 075°22'1 2.6
2018-Apr-17 13:30N 39°23' W 075°21'0 0.0
2018-Apr-17 13:00N 39°23' W 075°21'0 0.0
2018-Apr-17 12:30N 39°23' W 075°21'5 9.1
2018-Apr-17 11:56N 39°18' W 075°22'511.8
2018-Apr-17 11:30N 39°23' W 075°21'0 0.0
2018-Apr-17 11:00N 39°23' W 075°21'5 9.5
2018-Apr-17 10:28N 39°18' W 075°22'511.2
2018-Apr-17 10:00N 39°23' W 075°21'0 0.0
2018-Apr-17 09:29N 39°23' W 075°21'0 0.0
2018-Apr-17 09:00N 39°23' W 075°21'0 0.0
2018-Apr-17 08:28N 39°23' W 075°21'0 0.0
2018-Apr-17 07:55N 39°23' W 075°21'0 0.0
2018-Apr-17 07:29N 39°23' W 075°21'0 0.0
2018-Apr-17 06:58N 39°23' W 075°21'0 0.0
2018-Apr-17 06:29N 39°23' W 075°21'0 0.0
2018-Apr-17 06:00N 39°23' W 075°21'0 0.0
2018-Apr-17 05:30N 39°23' W 075°21'0 0.0
2018-Apr-17 05:00N 39°23' W 075°21'0 0.0
2018-Apr-17 04:30N 39°23' W 075°21'0 0.0
2018-Apr-17 03:59N 39°23' W 075°21'0 0.0
2018-Apr-17 03:30N 39°23' W 075°21'0 0.0
2018-Apr-17 03:01N 39°23' W 075°21'0 0.0
2018-Apr-17 02:30N 39°23' W 075°21'0 0.0
2018-Apr-17 02:00N 39°23' W 075°21'0 0.0
2018-Apr-17 01:31N 39°23' W 075°21'0 0.0
2018-Apr-17 01:00N 39°23' W 075°21'0 0.0
2018-Apr-17 00:30N 39°23' W 075°21'0 0.0
2018-Apr-17 00:00N 39°23' W 075°21'0 0.0
2018-Apr-16 23:30N 39°23' W 075°21'0 0.0
2018-Apr-16 23:00N 39°23' W 075°21'510.5
2018-Apr-16 22:30N 39°18' W 075°22'510.3
2018-Apr-16 22:00N 39°23' W 075°21'0 0.0
2018-Apr-16 21:30N 39°23' W 075°21'0 0.0
2018-Apr-16 20:59N 39°23' W 075°21'0 0.0
2018-Apr-16 20:30N 39°23' W 075°21'0 0.0
2018-Apr-16 20:00N 39°23' W 075°21'0 0.0
2018-Apr-16 19:30N 39°23' W 075°21'0 0.0
2018-Apr-16 19:00N 39°23' W 075°21'2 4.1
2018-Apr-16 18:31N 39°21' W 075°22'2 4.0
2018-Apr-16 18:00N 39°23' W 075°21'0 0.1
2018-Apr-16 17:30N 39°23' W 075°21'0 0.0
2018-Apr-16 17:00N 39°23' W 075°21'0 0.0
2018-Apr-16 16:30N 39°23' W 075°21'0 0.0
2018-Apr-16 16:00N 39°23' W 075°21'0 0.0
2018-Apr-16 15:30N 39°23' W 075°21'0 0.0
2018-Apr-16 15:00N 39°23' W 075°21'0 0.0
2018-Apr-16 14:30N 39°23' W 075°21'510.1
2018-Apr-16 14:00N 39°18' W 075°22'510.4
2018-Apr-16 13:31N 39°23' W 075°21'0 0.0
2018-Apr-16 13:00N 39°23' W 075°21'0 0.0
2018-Apr-16 12:30N 39°23' W 075°21'0 0.0
2018-Apr-16 12:00N 39°23' W 075°21'0 0.0
2018-Apr-16 11:30N 39°23' W 075°21'0 0.0
2018-Apr-16 11:01N 39°23' W 075°21'510.2
2018-Apr-16 10:30N 39°18' W 075°22'5 9.9
2018-Apr-16 09:59N 39°23' W 075°21'0 0.0
2018-Apr-16 09:30N 39°23' W 075°21'0 0.0
2018-Apr-16 09:00N 39°23' W 075°21'0 0.0
2018-Apr-16 08:30N 39°23' W 075°21'0 0.0
2018-Apr-16 08:00N 39°23' W 075°21'0 0.0
2018-Apr-16 07:30N 39°23' W 075°21'0 0.0
2018-Apr-16 07:00N 39°23' W 075°21'0 0.0
2018-Apr-16 06:30N 39°23' W 075°21'0 0.0
2018-Apr-16 06:01N 39°23' W 075°21'0 0.0
2018-Apr-16 05:30N 39°23' W 075°21'0 0.0
2018-Apr-16 05:01N 39°23' W 075°21'0 0.0
2018-Apr-16 04:31N 39°23' W 075°21'0 0.0
2018-Apr-16 04:01N 39°23' W 075°21'0 0.0
2018-Apr-16 03:31N 39°23' W 075°21'0 0.0
2018-Apr-16 03:00N 39°23' W 075°21'0 0.0
2018-Apr-16 02:31N 39°23' W 075°21'0 0.0
2018-Apr-16 02:01N 39°23' W 075°21'0 0.0
2018-Apr-16 01:31N 39°23' W 075°21'0 0.0
2018-Apr-16 01:00N 39°23' W 075°21'0 0.0
2018-Apr-16 00:30N 39°23' W 075°21'3 6.7
2018-Apr-16 00:00N 39°20' W 075°22'2 3.8
2018-Apr-15 23:30N 39°18' W 075°23'510.5
2018-Apr-15 23:01N 39°23' W 075°21'510.2
2018-Apr-15 22:30N 39°18' W 075°23'510.3
2018-Apr-15 22:00N 39°23' W 075°21'0 0.0
2018-Apr-15 21:30N 39°23' W 075°21'0 0.0
2018-Apr-15 21:00N 39°23' W 075°21'0 0.0
2018-Apr-15 20:30N 39°23' W 075°21'0 0.0
2018-Apr-15 20:00N 39°23' W 075°21'0 0.0
2018-Apr-15 19:30N 39°23' W 075°21'0 0.0
2018-Apr-15 19:00N 39°23' W 075°21'0 0.0
2018-Apr-15 18:30N 39°23' W 075°21'510.3
2018-Apr-15 18:00N 39°18' W 075°23'510.1
2018-Apr-15 17:30N 39°23' W 075°21'0 0.0
2018-Apr-15 17:00N 39°23' W 075°21'0 0.0
2018-Apr-15 16:30N 39°23' W 075°21'0 0.0
2018-Apr-15 16:00N 39°23' W 075°21'0 0.0
2018-Apr-15 15:30N 39°23' W 075°21'0 0.0
2018-Apr-15 15:00N 39°23' W 075°21'0 0.0
2018-Apr-15 14:30N 39°23' W 075°21'0 0.0
2018-Apr-15 14:00N 39°23' W 075°21'0 0.0
2018-Apr-15 13:30N 39°23' W 075°21'0 0.0
2018-Apr-15 13:00N 39°23' W 075°21'0 0.0
2018-Apr-15 12:30N 39°23' W 075°21'0 0.0
2018-Apr-15 12:00N 39°23' W 075°21'0 0.0
2018-Apr-15 11:30N 39°23' W 075°21'0 0.0
2018-Apr-15 11:00N 39°23' W 075°21'510.1
2018-Apr-15 10:30N 39°18' W 075°22'510.3
2018-Apr-15 10:00N 39°23' W 075°21'0 0.0
2018-Apr-15 09:30N 39°23' W 075°21'0 0.0
2018-Apr-15 09:00N 39°23' W 075°21'0 0.0
2018-Apr-15 08:30N 39°23' W 075°21'0 0.0
2018-Apr-15 08:00N 39°23' W 075°21'0 0.0
2018-Apr-15 07:31N 39°23' W 075°21'0 0.0
2018-Apr-15 07:00N 39°23' W 075°21'0 0.0
2018-Apr-15 06:30N 39°23' W 075°21'0 0.0
2018-Apr-15 06:00N 39°23' W 075°21'0 0.0
2018-Apr-15 05:30N 39°23' W 075°21'0 0.0
2018-Apr-15 05:00N 39°23' W 075°21'0 0.0
2018-Apr-15 04:30N 39°23' W 075°21'0 0.0
2018-Apr-15 04:00N 39°23' W 075°21'0 0.0
2018-Apr-15 03:30N 39°23' W 075°21'0 0.0
2018-Apr-15 03:00N 39°23' W 075°21'0 0.0
2018-Apr-15 02:30N 39°23' W 075°21'0 0.0
2018-Apr-15 02:00N 39°23' W 075°21'0 0.0
2018-Apr-15 01:30N 39°23' W 075°21'0 0.0
2018-Apr-15 01:01N 39°23' W 075°21'0 0.0
2018-Apr-15 00:31N 39°23' W 075°21'0 0.0
2018-Apr-15 00:01N 39°23' W 075°21'5 9.7
2018-Apr-14 23:30N 39°18' W 075°23'4 7.9
2018-Apr-14 23:00N 39°22' W 075°21'4 7.9
2018-Apr-14 22:30N 39°18' W 075°23'5 9.6
2018-Apr-14 22:00N 39°23' W 075°21'0 0.0
2018-Apr-14 21:30N 39°23' W 075°21'0 0.0
2018-Apr-14 21:00N 39°23' W 075°21'0 0.0
2018-Apr-14 20:29N 39°23' W 075°21'0 0.0
2018-Apr-14 20:00N 39°23' W 075°21'0 0.0
2018-Apr-14 19:22N 39°23' W 075°21'0 0.0
2018-Apr-14 19:00N 39°23' W 075°21'0 0.0
2018-Apr-14 18:30N 39°23' W 075°21'5 9.1
2018-Apr-14 18:00N 39°18' W 075°22'5 9.0
2018-Apr-14 17:30N 39°23' W 075°21'0 0.0
2018-Apr-14 17:01N 39°23' W 075°21'0 0.5
2018-Apr-14 16:30N 39°23' W 075°21'5 9.8
2018-Apr-14 16:00N 39°18' W 075°23'0 0.0
2018-Apr-14 15:30N 39°18' W 075°23'510.2
2018-Apr-14 15:01N 39°23' W 075°21'4 8.4
2018-Apr-14 14:31N 39°19' W 075°22'4 8.4
2018-Apr-14 14:00N 39°23' W 075°21'0 0.0
2018-Apr-14 13:30N 39°23' W 075°21'0 0.0
2018-Apr-14 13:00N 39°23' W 075°21'0 0.0
2018-Apr-14 12:30N 39°23' W 075°21'0 0.0
2018-Apr-14 12:00N 39°23' W 075°21'0 0.0
2018-Apr-14 11:30N 39°23' W 075°21'0 0.0
2018-Apr-14 11:00N 39°23' W 075°21'510.3
2018-Apr-14 10:30N 39°18' W 075°22'510.3
2018-Apr-14 10:01N 39°23' W 075°21'0 0.0
2018-Apr-14 09:30N 39°23' W 075°21'0 0.0
2018-Apr-14 08:57N 39°23' W 075°21'0 0.0
2018-Apr-14 08:30N 39°23' W 075°21'0 0.0
2018-Apr-14 08:00N 39°23' W 075°21'0 0.0
2018-Apr-14 07:30N 39°23' W 075°21'0 0.0
2018-Apr-14 07:01N 39°23' W 075°21'0 0.0
2018-Apr-14 06:30N 39°23' W 075°21'0 0.0
2018-Apr-14 06:01N 39°23' W 075°21'0 0.0
2018-Apr-14 05:29N 39°23' W 075°21'0 0.0
2018-Apr-14 05:00N 39°23' W 075°21'0 0.0
2018-Apr-14 04:29N 39°23' W 075°21'0 0.0
2018-Apr-14 04:00N 39°23' W 075°21'0 0.0
2018-Apr-14 03:30N 39°23' W 075°21'0 0.0
2018-Apr-14 03:00N 39°23' W 075°21'0 0.0
2018-Apr-14 02:30N 39°23' W 075°21'0 0.0
2018-Apr-14 02:00N 39°23' W 075°21'0 0.0
2018-Apr-14 01:30N 39°23' W 075°21'0 0.0
2018-Apr-14 01:00N 39°23' W 075°21'0 0.0
2018-Apr-14 00:30N 39°23' W 075°21'3 6.1
2018-Apr-14 00:00N 39°20' W 075°23'2 4.2
2018-Apr-13 23:30N 39°18' W 075°22'4 9.0
2018-Apr-13 23:01N 39°22' W 075°21'4 8.9
2018-Apr-13 22:31N 39°18' W 075°22'5 9.8
2018-Apr-13 22:00N 39°23' W 075°21'0 0.0
2018-Apr-13 21:29N 39°23' W 075°21'0 0.0
2018-Apr-13 20:59N 39°23' W 075°21'0 0.0
2018-Apr-13 20:30N 39°23' W 075°21'0 0.0
2018-Apr-13 20:00N 39°23' W 075°21'0 0.0
2018-Apr-13 19:30N 39°23' W 075°21'0 0.0
2018-Apr-13 19:00N 39°23' W 075°21'0 0.0
2018-Apr-13 18:30N 39°23' W 075°21'510.1
2018-Apr-13 18:01N 39°18' W 075°22'5 9.8
2018-Apr-13 17:30N 39°23' W 075°21'0 0.0
2018-Apr-13 17:00N 39°23' W 075°21'0 0.0
2018-Apr-13 16:31N 39°23' W 075°21'0 0.0
2018-Apr-13 16:00N 39°23' W 075°21'0 0.0
2018-Apr-13 15:30N 39°23' W 075°21'0 0.4
2018-Apr-13 15:00N 39°23' W 075°21'2 4.0
2018-Apr-13 14:30N 39°21' W 075°22'2 4.4
2018-Apr-13 14:00N 39°23' W 075°21'0 0.0
2018-Apr-13 13:30N 39°23' W 075°21'0 0.2
2018-Apr-13 13:00N 39°23' W 075°21'3 5.7
2018-Apr-13 12:30N 39°20' W 075°23'2 4.3
2018-Apr-13 12:00N 39°18' W 075°22'0 0.1
2018-Apr-13 11:31N 39°18' W 075°22'510.0
2018-Apr-13 11:00N 39°23' W 075°21'5 9.5
2018-Apr-13 10:30N 39°18' W 075°22'5 9.7
2018-Apr-13 10:00N 39°23' W 075°21'0 0.0
2018-Apr-13 09:30N 39°23' W 075°21'0 0.0
2018-Apr-13 09:00N 39°23' W 075°21'0 0.0
2018-Apr-13 08:30N 39°23' W 075°21'0 0.0
2018-Apr-13 08:00N 39°23' W 075°21'0 0.0
2018-Apr-13 07:30N 39°23' W 075°21'0 0.0
2018-Apr-13 07:01N 39°23' W 075°21'0 0.0
2018-Apr-13 06:31N 39°23' W 075°21'0 0.0
2018-Apr-13 06:00N 39°23' W 075°21'0 0.0
2018-Apr-13 05:30N 39°23' W 075°21'  
Track history (hours):
 
Tides and Currents Weather Stations Pressure Air Temp Water Temp Dewpoint Dewpoint Depression Visibility Wind Speed Wind Dir Waves Ship Positions

Breakwater

Owner: DELAWARE BAY LAUNCH SERVICE, Inc., MILFORD, DE. More information available from US FCC via Universal Licensing System and Coast Guard Vessel Documentation Center.

Last reported at 2018-Apr-23 05:30 UTC. Time now 2018-Apr-23 05:30 UTC.
Position N 39°23' W 075°21'.

Length 15 m; draft 1 m.

Type: Pilot. MMSI: 367090620.

Date/timePositionNaut miles runAvg speedWind from/ knotsBaromVisibWave heightAir tempDewpointWater temp
2018-Apr-23 05:30N 39°23' W 075°21'0 0.0
2018-Apr-23 05:00N 39°23' W 075°21'0 0.0
2018-Apr-23 04:30N 39°23' W 075°21'0 0.0
2018-Apr-23 04:00N 39°23' W 075°21'0 0.0
2018-Apr-23 02:56N 39°23' W 075°21'0 0.0
2018-Apr-23 02:28N 39°23' W 075°21'0 0.0
2018-Apr-23 00:20N 39°23' W 075°21'0 0.0
2018-Apr-22 23:57N 39°23' W 075°21'510.9
2018-Apr-22 23:30N 39°18' W 075°22'4 7.7
2018-Apr-22 22:59N 39°22' W 075°21'4 8.5
2018-Apr-22 22:30N 39°18' W 075°22'5 9.6
2018-Apr-22 21:59N 39°23' W 075°21'0 0.0
2018-Apr-22 21:30N 39°23' W 075°21'0 0.3
2018-Apr-22 21:00N 39°23' W 075°21'0 0.2
2018-Apr-22 20:29N 39°23' W 075°21'0 0.0
2018-Apr-22 20:00N 39°23' W 075°21'0 0.0
2018-Apr-22 19:27N 39°23' W 075°21'0 0.0
2018-Apr-22 18:59N 39°23' W 075°21'0 0.0
2018-Apr-22 18:29N 39°23' W 075°21'510.2
2018-Apr-22 17:58N 39°18' W 075°22'510.5
2018-Apr-22 17:28N 39°23' W 075°21'0 0.0
2018-Apr-22 16:59N 39°23' W 075°21'0 0.0
2018-Apr-22 16:30N 39°23' W 075°21'0 0.0
2018-Apr-22 16:00N 39°23' W 075°21'0 0.0
2018-Apr-22 15:29N 39°23' W 075°21'2 3.5
2018-Apr-22 15:01N 39°21' W 075°22'4 6.7
2018-Apr-22 14:29N 39°18' W 075°22'4 7.8
2018-Apr-22 14:00N 39°20' W 075°26'1325.2
2018-Apr-22 13:28N 39°33' W 075°32'3 6.6
2018-Apr-22 13:00N 39°34' W 075°29'0 0.5
2018-Apr-22 12:30N 39°34' W 075°30'815.6
2018-Apr-22 12:01N 39°27' W 075°33'1223.1
2018-Apr-22 11:30N 39°18' W 075°23'4 7.7
2018-Apr-22 10:58N 39°22' W 075°21'4 7.7
2018-Apr-22 10:29N 39°19' W 075°22'4 9.1
2018-Apr-22 10:00N 39°23' W 075°21'0 0.0
2018-Apr-22 09:28N 39°23' W 075°21'0 0.0
2018-Apr-22 09:00N 39°23' W 075°21'0 0.0
2018-Apr-22 08:30N 39°23' W 075°21'0 0.0
2018-Apr-22 07:59N 39°23' W 075°21'0 0.0
2018-Apr-22 07:30N 39°23' W 075°21'0 0.0
2018-Apr-22 06:59N 39°23' W 075°21'0 0.0
2018-Apr-22 06:29N 39°23' W 075°21'0 0.0
2018-Apr-22 06:00N 39°23' W 075°21'3 5.2
2018-Apr-22 05:30N 39°20' W 075°22'0 0.9
2018-Apr-22 05:00N 39°20' W 075°22'3 5.9
2018-Apr-22 04:30N 39°23' W 075°21'0 0.0
2018-Apr-22 04:00N 39°23' W 075°21'0 0.0
2018-Apr-22 03:31N 39°23' W 075°21'0 0.0
2018-Apr-22 03:01N 39°23' W 075°21'0 0.0
2018-Apr-22 02:31N 39°23' W 075°21'0 0.0
2018-Apr-22 02:00N 39°23' W 075°21'0 0.0
2018-Apr-22 01:28N 39°23' W 075°21'0 0.0
2018-Apr-22 01:00N 39°23' W 075°21'0 0.0
2018-Apr-22 00:31N 39°23' W 075°21'0 0.0
2018-Apr-22 00:00N 39°23' W 075°21'2 4.6
2018-Apr-21 23:31N 39°21' W 075°22'1 2.7
2018-Apr-21 23:00N 39°22' W 075°21'4 8.4
2018-Apr-21 22:30N 39°18' W 075°22'510.5
2018-Apr-21 22:00N 39°23' W 075°21'0 0.0
2018-Apr-21 21:30N 39°23' W 075°21'1 1.3
2018-Apr-21 21:00N 39°22' W 075°21'0 0.2
2018-Apr-21 18:49N 39°22' W 075°21'0 0.6
2018-Apr-21 18:03N 39°23' W 075°21'0 0.1
2018-Apr-21 17:59N 39°23' W 075°21'0 0.0
2018-Apr-21 17:26N 39°23' W 075°21'0 0.0
2018-Apr-21 16:59N 39°23' W 075°21'0 0.0
2018-Apr-21 16:28N 39°23' W 075°21'0 0.0
2018-Apr-21 15:57N 39°23' W 075°21'0 0.0
2018-Apr-21 15:29N 39°23' W 075°21'0 0.0
2018-Apr-21 14:57N 39°23' W 075°21'2 3.4
2018-Apr-21 14:29N 39°21' W 075°22'2 3.1
2018-Apr-21 13:59N 39°23' W 075°21'0 0.0
2018-Apr-21 13:30N 39°23' W 075°21'0 0.0
2018-Apr-21 12:59N 39°23' W 075°21'0 0.0
2018-Apr-21 12:28N 39°23' W 075°21'0 0.0
2018-Apr-21 11:58N 39°23' W 075°21'510.7
2018-Apr-21 11:29N 39°18' W 075°22'510.6
2018-Apr-21 11:00N 39°23' W 075°21'510.1
2018-Apr-21 10:30N 39°18' W 075°22'510.0
2018-Apr-21 09:58N 39°23' W 075°21'0 0.0
2018-Apr-21 09:28N 39°23' W 075°21'0 0.0
2018-Apr-21 09:00N 39°23' W 075°21'0 0.0
2018-Apr-21 08:30N 39°23' W 075°21'0 0.0
2018-Apr-21 08:00N 39°23' W 075°21'0 0.0
2018-Apr-21 07:30N 39°23' W 075°21'0 0.0
2018-Apr-21 07:00N 39°23' W 075°21'0 0.0
2018-Apr-21 06:30N 39°23' W 075°21'0 0.0
2018-Apr-21 06:00N 39°23' W 075°21'0 0.0
2018-Apr-21 05:30N 39°23' W 075°21'0 0.0
2018-Apr-21 05:00N 39°23' W 075°21'0 0.0
2018-Apr-21 04:28N 39°23' W 075°21'0 0.0
2018-Apr-21 04:00N 39°23' W 075°21'0 0.0
2018-Apr-21 03:30N 39°23' W 075°21'0 0.0
2018-Apr-21 03:00N 39°23' W 075°21'0 0.0
2018-Apr-21 02:30N 39°23' W 075°21'0 0.0
2018-Apr-21 02:00N 39°23' W 075°21'0 0.0
2018-Apr-21 01:30N 39°23' W 075°21'0 0.0
2018-Apr-21 01:00N 39°23' W 075°21'0 0.0
2018-Apr-21 00:30N 39°23' W 075°21'2 3.3
2018-Apr-21 00:01N 39°21' W 075°22'3 6.8
2018-Apr-20 23:30N 39°18' W 075°22'510.2
2018-Apr-20 23:00N 39°23' W 075°21'0 0.1
2018-Apr-20 20:41N 39°23' W 075°21'518.4
2018-Apr-20 20:25N 39°18' W 075°23'511.5
2018-Apr-20 20:00N 39°22' W 075°21'1 1.2
2018-Apr-20 19:30N 39°23' W 075°21'0 0.0
2018-Apr-20 19:00N 39°23' W 075°21'0 0.0
2018-Apr-20 18:30N 39°23' W 075°21'2 4.9
2018-Apr-20 18:00N 39°20' W 075°22'1 2.9
2018-Apr-20 17:30N 39°22' W 075°21'1 2.1
2018-Apr-20 17:00N 39°23' W 075°21'0 0.0
2018-Apr-20 16:30N 39°23' W 075°21'0 0.0
2018-Apr-20 16:00N 39°23' W 075°21'0 0.0
2018-Apr-20 15:30N 39°23' W 075°21'0 0.0
2018-Apr-20 15:00N 39°23' W 075°21'0 0.0
2018-Apr-20 14:30N 39°23' W 075°21'0 0.0
2018-Apr-20 14:00N 39°23' W 075°21'0 0.0
2018-Apr-20 13:30N 39°23' W 075°21'0 0.0
2018-Apr-20 13:00N 39°23' W 075°21'0 0.0
2018-Apr-20 12:30N 39°23' W 075°21'0 0.0
2018-Apr-20 11:59N 39°23' W 075°21'0 0.0
2018-Apr-20 11:29N 39°23' W 075°21'0 0.0
2018-Apr-20 10:55N 39°23' W 075°21'512.1
2018-Apr-20 10:30N 39°18' W 075°22'5 9.9
2018-Apr-20 10:00N 39°23' W 075°21'0 0.0
2018-Apr-20 09:29N 39°23' W 075°21'0 0.0
2018-Apr-20 08:59N 39°23' W 075°21'0 0.0
2018-Apr-20 08:30N 39°23' W 075°21'0 0.0
2018-Apr-20 08:00N 39°23' W 075°21'0 0.0
2018-Apr-20 07:30N 39°23' W 075°21'0 0.0
2018-Apr-20 07:00N 39°23' W 075°21'0 0.0
2018-Apr-20 06:29N 39°23' W 075°21'0 0.0
2018-Apr-20 06:00N 39°23' W 075°21'0 0.0
2018-Apr-20 05:30N 39°23' W 075°21'0 0.0
2018-Apr-20 05:00N 39°23' W 075°21'0 0.0
2018-Apr-20 04:30N 39°23' W 075°21'0 0.0
2018-Apr-20 04:00N 39°23' W 075°21'0 0.0
2018-Apr-20 03:30N 39°23' W 075°21'0 0.0
2018-Apr-20 03:00N 39°23' W 075°21'0 0.0
2018-Apr-20 02:30N 39°23' W 075°21'0 0.0
2018-Apr-20 02:00N 39°23' W 075°21'0 0.0
2018-Apr-20 01:30N 39°23' W 075°21'0 0.0
2018-Apr-20 01:00N 39°23' W 075°21'0 0.0
2018-Apr-20 00:30N 39°23' W 075°21'0 0.0
2018-Apr-20 00:00N 39°23' W 075°21'0 0.0
2018-Apr-19 23:19N 39°23' W 075°21'0 0.3
2018-Apr-19 23:01N 39°23' W 075°21'5 9.5
2018-Apr-19 22:28N 39°18' W 075°22'511.3
2018-Apr-19 22:00N 39°23' W 075°21'0 0.0
2018-Apr-19 21:30N 39°23' W 075°21'0 0.0
2018-Apr-19 21:00N 39°23' W 075°21'0 0.0
2018-Apr-19 20:30N 39°23' W 075°21'0 0.0
2018-Apr-19 20:00N 39°23' W 075°21'0 0.0
2018-Apr-19 19:30N 39°23' W 075°21'0 0.0
2018-Apr-19 19:00N 39°23' W 075°21'0 0.0
2018-Apr-19 18:30N 39°23' W 075°21'0 0.0
2018-Apr-19 18:00N 39°23' W 075°21'0 0.0
2018-Apr-19 17:30N 39°23' W 075°21'0 0.0
2018-Apr-19 17:00N 39°23' W 075°21'0 0.0
2018-Apr-19 16:30N 39°23' W 075°21'0 0.0
2018-Apr-19 16:00N 39°23' W 075°21'1 2.8
2018-Apr-19 15:30N 39°21' W 075°22'4 7.7
2018-Apr-19 15:00N 39°18' W 075°22'0 0.0
2018-Apr-19 14:28N 39°18' W 075°22'510.8
2018-Apr-19 13:59N 39°23' W 075°21'0 0.0
2018-Apr-19 13:30N 39°23' W 075°21'0 0.0
2018-Apr-19 13:00N 39°23' W 075°21'0 0.0
2018-Apr-19 12:31N 39°23' W 075°21'3 5.8
2018-Apr-19 12:00N 39°20' W 075°22'3 5.8
2018-Apr-19 11:30N 39°23' W 075°21'0 0.0
2018-Apr-19 10:59N 39°23' W 075°21'510.7
2018-Apr-19 10:30N 39°18' W 075°22'510.3
2018-Apr-19 10:00N 39°23' W 075°21'0 0.0
2018-Apr-19 09:30N 39°23' W 075°21'0 0.0
2018-Apr-19 09:00N 39°23' W 075°21'0 0.0
2018-Apr-19 08:30N 39°23' W 075°21'0 0.0
2018-Apr-19 08:00N 39°23' W 075°21'0 0.0
2018-Apr-19 07:30N 39°23' W 075°21'0 0.0
2018-Apr-19 07:00N 39°23' W 075°21'0 0.0
2018-Apr-19 06:30N 39°23' W 075°21'0 0.0
2018-Apr-19 06:00N 39°23' W 075°21'0 0.0
2018-Apr-19 05:28N 39°23' W 075°21'0 0.0
2018-Apr-19 05:00N 39°23' W 075°21'0 0.0
2018-Apr-19 04:30N 39°23' W 075°21'0 0.0
2018-Apr-19 04:00N 39°23' W 075°21'0 0.0
2018-Apr-19 03:30N 39°23' W 075°21'0 0.0
2018-Apr-19 03:00N 39°23' W 075°21'0 0.0
2018-Apr-19 02:30N 39°23' W 075°21'0 0.0
2018-Apr-19 02:00N 39°23' W 075°21'0 0.0
2018-Apr-19 01:30N 39°23' W 075°21'0 0.0
2018-Apr-19 01:00N 39°23' W 075°21'0 0.0
2018-Apr-19 00:30N 39°23' W 075°21'0 0.0
2018-Apr-19 00:00N 39°23' W 075°21'3 6.5
2018-Apr-18 23:31N 39°20' W 075°22'3 6.5
2018-Apr-18 23:00N 39°23' W 075°21'510.1
2018-Apr-18 22:30N 39°18' W 075°22'510.4
2018-Apr-18 22:00N 39°23' W 075°21'0 0.0
2018-Apr-18 21:30N 39°23' W 075°21'0 0.0
2018-Apr-18 21:00N 39°23' W 075°21'0 0.0
2018-Apr-18 20:30N 39°23' W 075°21'0 0.0
2018-Apr-18 20:00N 39°23' W 075°21'0 0.0
2018-Apr-18 19:30N 39°23' W 075°21'0 0.0
2018-Apr-18 19:00N 39°23' W 075°21'0 0.1
2018-Apr-18 18:30N 39°23' W 075°21'510.0
2018-Apr-18 17:59N 39°18' W 075°22'510.7
2018-Apr-18 17:30N 39°23' W 075°21'0 0.0
2018-Apr-18 17:00N 39°23' W 075°21'0 0.0
2018-Apr-18 16:30N 39°23' W 075°21'0 0.0
2018-Apr-18 16:00N 39°23' W 075°21'2 3.7
2018-Apr-18 15:31N 39°21' W 075°22'3 6.6
2018-Apr-18 15:00N 39°18' W 075°22'0 0.1
2018-Apr-18 14:31N 39°18' W 075°22'510.2
2018-Apr-18 14:00N 39°23' W 075°21'0 0.0
2018-Apr-18 13:30N 39°23' W 075°21'0 0.0
2018-Apr-18 13:00N 39°23' W 075°21'0 0.0
2018-Apr-18 12:29N 39°23' W 075°21'0 0.0
2018-Apr-18 12:00N 39°23' W 075°21'0 0.0
2018-Apr-18 11:30N 39°23' W 075°21'0 0.0
2018-Apr-18 11:00N 39°23' W 075°21'510.3
2018-Apr-18 10:30N 39°18' W 075°22'510.3
2018-Apr-18 10:00N 39°23' W 075°21'0 0.0
2018-Apr-18 09:30N 39°23' W 075°21'0 0.0
2018-Apr-18 09:00N 39°23' W 075°21'0 0.0
2018-Apr-18 08:30N 39°23' W 075°21'0 0.0
2018-Apr-18 08:00N 39°23' W 075°21'0 0.0
2018-Apr-18 07:29N 39°23' W 075°21'0 0.0
2018-Apr-18 07:00N 39°23' W 075°21'0 0.0
2018-Apr-18 06:30N 39°23' W 075°21'0 0.0
2018-Apr-18 05:59N 39°23' W 075°21'0 0.0
2018-Apr-18 05:30N 39°23' W 075°21'0 0.0
2018-Apr-18 05:00N 39°23' W 075°21'0 0.0
2018-Apr-18 04:30N 39°23' W 075°21'0 0.0
2018-Apr-18 04:00N 39°23' W 075°21'0 0.0
2018-Apr-18 03:30N 39°23' W 075°21'0 0.0
2018-Apr-18 03:00N 39°23' W 075°21'0 0.0
2018-Apr-18 02:30N 39°23' W 075°21'0 0.0
2018-Apr-18 02:00N 39°23' W 075°21'0 0.0
2018-Apr-18 01:30N 39°23' W 075°21'0 0.0
2018-Apr-18 01:00N 39°23' W 075°21'0 0.0
2018-Apr-18 00:30N 39°23' W 075°21'2 4.6
2018-Apr-18 00:00N 39°21' W 075°22'3 5.5
2018-Apr-17 23:29N 39°18' W 075°22'510.9
2018-Apr-17 23:01N 39°23' W 075°21'510.3
2018-Apr-17 22:31N 39°18' W 075°22'510.3
2018-Apr-17 22:01N 39°23' W 075°21'0 0.0
2018-Apr-17 21:31N 39°23' W 075°21'0 0.0
2018-Apr-17 21:01N 39°23' W 075°21'0 0.0
2018-Apr-17 20:31N 39°23' W 075°21'0 0.0
2018-Apr-17 20:01N 39°23' W 075°21'0 0.0
2018-Apr-17 19:30N 39°23' W 075°21'0 0.0
2018-Apr-17 19:00N 39°23' W 075°21'0 0.0
2018-Apr-17 18:30N 39°23' W 075°21'0 0.0
2018-Apr-17 18:01N 39°23' W 075°21'0 0.0
2018-Apr-17 17:30N 39°23' W 075°21'0 0.0
2018-Apr-17 17:00N 39°23' W 075°21'0 0.0
2018-Apr-17 16:30N 39°23' W 075°21'0 0.0
2018-Apr-17 16:00N 39°23' W 075°21'3 6.9
2018-Apr-17 15:31N 39°19' W 075°22'3 6.8
2018-Apr-17 15:00N 39°23' W 075°21'1 2.0
2018-Apr-17 14:31N 39°22' W 075°21'0 1.0
2018-Apr-17 14:01N 39°22' W 075°22'1 2.6
2018-Apr-17 13:30N 39°23' W 075°21'0 0.0
2018-Apr-17 13:00N 39°23' W 075°21'0 0.0
2018-Apr-17 12:30N 39°23' W 075°21'5 9.1
2018-Apr-17 11:56N 39°18' W 075°22'511.8
2018-Apr-17 11:30N 39°23' W 075°21'0 0.0
2018-Apr-17 11:00N 39°23' W 075°21'5 9.5
2018-Apr-17 10:28N 39°18' W 075°22'511.2
2018-Apr-17 10:00N 39°23' W 075°21'0 0.0
2018-Apr-17 09:29N 39°23' W 075°21'0 0.0
2018-Apr-17 09:00N 39°23' W 075°21'0 0.0
2018-Apr-17 08:28N 39°23' W 075°21'0 0.0
2018-Apr-17 07:55N 39°23' W 075°21'0 0.0
2018-Apr-17 07:29N 39°23' W 075°21'0 0.0
2018-Apr-17 06:58N 39°23' W 075°21'0 0.0
2018-Apr-17 06:29N 39°23' W 075°21'0 0.0
2018-Apr-17 06:00N 39°23' W 075°21'0 0.0
2018-Apr-17 05:30N 39°23' W 075°21'0 0.0
2018-Apr-17 05:00N 39°23' W 075°21'0 0.0
2018-Apr-17 04:30N 39°23' W 075°21'0 0.0
2018-Apr-17 03:59N 39°23' W 075°21'0 0.0
2018-Apr-17 03:30N 39°23' W 075°21'0 0.0
2018-Apr-17 03:01N 39°23' W 075°21'0 0.0
2018-Apr-17 02:30N 39°23' W 075°21'0 0.0
2018-Apr-17 02:00N 39°23' W 075°21'0 0.0
2018-Apr-17 01:31N 39°23' W 075°21'0 0.0
2018-Apr-17 01:00N 39°23' W 075°21'0 0.0
2018-Apr-17 00:30N 39°23' W 075°21'0 0.0
2018-Apr-17 00:00N 39°23' W 075°21'0 0.0
2018-Apr-16 23:30N 39°23' W 075°21'0 0.0
2018-Apr-16 23:00N 39°23' W 075°21'510.5
2018-Apr-16 22:30N 39°18' W 075°22'510.3
2018-Apr-16 22:00N 39°23' W 075°21'0 0.0
2018-Apr-16 21:30N 39°23' W 075°21'0 0.0
2018-Apr-16 20:59N 39°23' W 075°21'0 0.0
2018-Apr-16 20:30N 39°23' W 075°21'0 0.0
2018-Apr-16 20:00N 39°23' W 075°21'0 0.0
2018-Apr-16 19:30N 39°23' W 075°21'0 0.0
2018-Apr-16 19:00N 39°23' W 075°21'2 4.1
2018-Apr-16 18:31N 39°21' W 075°22'2 4.0
2018-Apr-16 18:00N 39°23' W 075°21'0 0.1
2018-Apr-16 17:30N 39°23' W 075°21'0 0.0
2018-Apr-16 17:00N 39°23' W 075°21'0 0.0
2018-Apr-16 16:30N 39°23' W 075°21'0 0.0
2018-Apr-16 16:00N 39°23' W 075°21'0 0.0
2018-Apr-16 15:30N 39°23' W 075°21'0 0.0
2018-Apr-16 15:00N 39°23' W 075°21'0 0.0
2018-Apr-16 14:30N 39°23' W 075°21'510.1
2018-Apr-16 14:00N 39°18' W 075°22'510.4
2018-Apr-16 13:31N 39°23' W 075°21'0 0.0
2018-Apr-16 13:00N 39°23' W 075°21'0 0.0
2018-Apr-16 12:30N 39°23' W 075°21'0 0.0
2018-Apr-16 12:00N 39°23' W 075°21'0 0.0
2018-Apr-16 11:30N 39°23' W 075°21'0 0.0
2018-Apr-16 11:01N 39°23' W 075°21'510.2
2018-Apr-16 10:30N 39°18' W 075°22'5 9.9
2018-Apr-16 09:59N 39°23' W 075°21'0 0.0
2018-Apr-16 09:30N 39°23' W 075°21'0 0.0
2018-Apr-16 09:00N 39°23' W 075°21'0 0.0
2018-Apr-16 08:30N 39°23' W 075°21'0 0.0
2018-Apr-16 08:00N 39°23' W 075°21'0 0.0
2018-Apr-16 07:30N 39°23' W 075°21'0 0.0
2018-Apr-16 07:00N 39°23' W 075°21'0 0.0
2018-Apr-16 06:30N 39°23' W 075°21'0 0.0
2018-Apr-16 06:01N 39°23' W 075°21'0 0.0
2018-Apr-16 05:30N 39°23' W 075°21'0 0.0
2018-Apr-16 05:01N 39°23' W 075°21'0 0.0
2018-Apr-16 04:31N 39°23' W 075°21'0 0.0
2018-Apr-16 04:01N 39°23' W 075°21'0 0.0
2018-Apr-16 03:31N 39°23' W 075°21'0 0.0
2018-Apr-16 03:00N 39°23' W 075°21'0 0.0
2018-Apr-16 02:31N 39°23' W 075°21'0 0.0
2018-Apr-16 02:01N 39°23' W 075°21'0 0.0
2018-Apr-16 01:31N 39°23' W 075°21'0 0.0
2018-Apr-16 01:00N 39°23' W 075°21'0 0.0
2018-Apr-16 00:30N 39°23' W 075°21'3 6.7
2018-Apr-16 00:00N 39°20' W 075°22'2 3.8
2018-Apr-15 23:30N 39°18' W 075°23'510.5
2018-Apr-15 23:01N 39°23' W 075°21'510.2
2018-Apr-15 22:30N 39°18' W 075°23'510.3
2018-Apr-15 22:00N 39°23' W 075°21'0 0.0
2018-Apr-15 21:30N 39°23' W 075°21'0 0.0
2018-Apr-15 21:00N 39°23' W 075°21'0 0.0
2018-Apr-15 20:30N 39°23' W 075°21'0 0.0
2018-Apr-15 20:00N 39°23' W 075°21'0 0.0
2018-Apr-15 19:30N 39°23' W 075°21'0 0.0
2018-Apr-15 19:00N 39°23' W 075°21'0 0.0
2018-Apr-15 18:30N 39°23' W 075°21'510.3
2018-Apr-15 18:00N 39°18' W 075°23'510.1
2018-Apr-15 17:30N 39°23' W 075°21'0 0.0
2018-Apr-15 17:00N 39°23' W 075°21'0 0.0
2018-Apr-15 16:30N 39°23' W 075°21'0 0.0
2018-Apr-15 16:00N 39°23' W 075°21'0 0.0
2018-Apr-15 15:30N 39°23' W 075°21'0 0.0
2018-Apr-15 15:00N 39°23' W 075°21'0 0.0
2018-Apr-15 14:30N 39°23' W 075°21'0 0.0
2018-Apr-15 14:00N 39°23' W 075°21'0 0.0
2018-Apr-15 13:30N 39°23' W 075°21'0 0.0
2018-Apr-15 13:00N 39°23' W 075°21'0 0.0
2018-Apr-15 12:30N 39°23' W 075°21'0 0.0
2018-Apr-15 12:00N 39°23' W 075°21'0 0.0
2018-Apr-15 11:30N 39°23' W 075°21'0 0.0
2018-Apr-15 11:00N 39°23' W 075°21'510.1
2018-Apr-15 10:30N 39°18' W 075°22'510.3
2018-Apr-15 10:00N 39°23' W 075°21'0 0.0
2018-Apr-15 09:30N 39°23' W 075°21'0 0.0
2018-Apr-15 09:00N 39°23' W 075°21'0 0.0
2018-Apr-15 08:30N 39°23' W 075°21'0 0.0
2018-Apr-15 08:00N 39°23' W 075°21'0 0.0
2018-Apr-15 07:31N 39°23' W 075°21'0 0.0
2018-Apr-15 07:00N 39°23' W 075°21'0 0.0
2018-Apr-15 06:30N 39°23' W 075°21'0 0.0
2018-Apr-15 06:00N 39°23' W 075°21'0 0.0
2018-Apr-15 05:30N 39°23' W 075°21'0 0.0
2018-Apr-15 05:00N 39°23' W 075°21'0 0.0
2018-Apr-15 04:30N 39°23' W 075°21'0 0.0
2018-Apr-15 04:00N 39°23' W 075°21'0 0.0
2018-Apr-15 03:30N 39°23' W 075°21'0 0.0
2018-Apr-15 03:00N 39°23' W 075°21'0 0.0
2018-Apr-15 02:30N 39°23' W 075°21'0 0.0
2018-Apr-15 02:00N 39°23' W 075°21'0 0.0
2018-Apr-15 01:30N 39°23' W 075°21'0 0.0
2018-Apr-15 01:01N 39°23' W 075°21'0 0.0
2018-Apr-15 00:31N 39°23' W 075°21'0 0.0
2018-Apr-15 00:01N 39°23' W 075°21'5 9.7
2018-Apr-14 23:30N 39°18' W 075°23'4 7.9
2018-Apr-14 23:00N 39°22' W 075°21'4 7.9
2018-Apr-14 22:30N 39°18' W 075°23'5 9.6
2018-Apr-14 22:00N 39°23' W 075°21'0 0.0
2018-Apr-14 21:30N 39°23' W 075°21'0 0.0
2018-Apr-14 21:00N 39°23' W 075°21'0 0.0
2018-Apr-14 20:29N 39°23' W 075°21'0 0.0
2018-Apr-14 20:00N 39°23' W 075°21'0 0.0
2018-Apr-14 19:22N 39°23' W 075°21'0 0.0
2018-Apr-14 19:00N 39°23' W 075°21'0 0.0
2018-Apr-14 18:30N 39°23' W 075°21'5 9.1
2018-Apr-14 18:00N 39°18' W 075°22'5 9.0
2018-Apr-14 17:30N 39°23' W 075°21'0 0.0
2018-Apr-14 17:01N 39°23' W 075°21'0 0.5
2018-Apr-14 16:30N 39°23' W 075°21'5 9.8
2018-Apr-14 16:00N 39°18' W 075°23'0 0.0
2018-Apr-14 15:30N 39°18' W 075°23'510.2
2018-Apr-14 15:01N 39°23' W 075°21'4 8.4
2018-Apr-14 14:31N 39°19' W 075°22'4 8.4
2018-Apr-14 14:00N 39°23' W 075°21'0 0.0
2018-Apr-14 13:30N 39°23' W 075°21'0 0.0
2018-Apr-14 13:00N 39°23' W 075°21'0 0.0
2018-Apr-14 12:30N 39°23' W 075°21'0 0.0
2018-Apr-14 12:00N 39°23' W 075°21'0 0.0
2018-Apr-14 11:30N 39°23' W 075°21'0 0.0
2018-Apr-14 11:00N 39°23' W 075°21'510.3
2018-Apr-14 10:30N 39°18' W 075°22'510.3
2018-Apr-14 10:01N 39°23' W 075°21'0 0.0
2018-Apr-14 09:30N 39°23' W 075°21'0 0.0
2018-Apr-14 08:57N 39°23' W 075°21'0 0.0
2018-Apr-14 08:30N 39°23' W 075°21'0 0.0
2018-Apr-14 08:00N 39°23' W 075°21'0 0.0
2018-Apr-14 07:30N 39°23' W 075°21'0 0.0
2018-Apr-14 07:01N 39°23' W 075°21'0 0.0
2018-Apr-14 06:30N 39°23' W 075°21'0 0.0
2018-Apr-14 06:01N 39°23' W 075°21'0 0.0
2018-Apr-14 05:29N 39°23' W 075°21'0 0.0
2018-Apr-14 05:00N 39°23' W 075°21'0 0.0
2018-Apr-14 04:29N 39°23' W 075°21'0 0.0
2018-Apr-14 04:00N 39°23' W 075°21'0 0.0
2018-Apr-14 03:30N 39°23' W 075°21'0 0.0
2018-Apr-14 03:00N 39°23' W 075°21'0 0.0
2018-Apr-14 02:30N 39°23' W 075°21'0 0.0
2018-Apr-14 02:00N 39°23' W 075°21'0 0.0
2018-Apr-14 01:30N 39°23' W 075°21'0 0.0
2018-Apr-14 01:00N 39°23' W 075°21'0 0.0
2018-Apr-14 00:30N 39°23' W 075°21'3 6.1
2018-Apr-14 00:00N 39°20' W 075°23'2 4.2
2018-Apr-13 23:30N 39°18' W 075°22'4 9.0
2018-Apr-13 23:01N 39°22' W 075°21'4 8.9
2018-Apr-13 22:31N 39°18' W 075°22'5 9.8
2018-Apr-13 22:00N 39°23' W 075°21'0 0.0
2018-Apr-13 21:29N 39°23' W 075°21'0 0.0
2018-Apr-13 20:59N 39°23' W 075°21'0 0.0
2018-Apr-13 20:30N 39°23' W 075°21'0 0.0
2018-Apr-13 20:00N 39°23' W 075°21'0 0.0
2018-Apr-13 19:30N 39°23' W 075°21'0 0.0
2018-Apr-13 19:00N 39°23' W 075°21'0 0.0
2018-Apr-13 18:30N 39°23' W 075°21'510.1
2018-Apr-13 18:01N 39°18' W 075°22'5 9.8
2018-Apr-13 17:30N 39°23' W 075°21'0 0.0
2018-Apr-13 17:00N 39°23' W 075°21'0 0.0
2018-Apr-13 16:31N 39°23' W 075°21'0 0.0
2018-Apr-13 16:00N 39°23' W 075°21'0 0.0
2018-Apr-13 15:30N 39°23' W 075°21'0 0.4
2018-Apr-13 15:00N 39°23' W 075°21'2 4.0
2018-Apr-13 14:30N 39°21' W 075°22'2 4.4
2018-Apr-13 14:00N 39°23' W 075°21'0 0.0
2018-Apr-13 13:30N 39°23' W 075°21'0 0.2
2018-Apr-13 13:00N 39°23' W 075°21'3 5.7
2018-Apr-13 12:30N 39°20' W 075°23'2 4.3
2018-Apr-13 12:00N 39°18' W 075°22'0 0.1
2018-Apr-13 11:31N 39°18' W 075°22'510.0
2018-Apr-13 11:00N 39°23' W 075°21'5 9.5
2018-Apr-13 10:30N 39°18' W 075°22'5 9.7
2018-Apr-13 10:00N 39°23' W 075°21'0 0.0
2018-Apr-13 09:30N 39°23' W 075°21'0 0.0
2018-Apr-13 09:00N 39°23' W 075°21'0 0.0
2018-Apr-13 08:30N 39°23' W 075°21'0 0.0
2018-Apr-13 08:00N 39°23' W 075°21'0 0.0
2018-Apr-13 07:30N 39°23' W 075°21'0 0.0
2018-Apr-13 07:01N 39°23' W 075°21'0 0.0
2018-Apr-13 06:31N 39°23' W 075°21'0 0.0
2018-Apr-13 06:00N 39°23' W 075°21'0 0.0
2018-Apr-13 05:30N 39°23' W 075°21'  

Dump ship's entire track history